Date,TemperatureHighF,TemperatureAvgF,TemperatureLowF,DewpointHighF,DewpointAvgF,DewpointLowF,HumidityHigh,HumidityAvg,HumidityLow,PressureMaxIn,PressureMinIn,WindSpeedMaxMPH,WindSpeedAvgMPH,GustSpeedMaxMPH,PrecipitationSumIn
2013-1-1,35,31,27,21,19,18,70,60,50,29.75,29.17,4,0,7,0.00
2013-1-2,28,21,18,19,17,14,90,83,67,29.58,29.19,4,0,5,0.00
2013-1-3,28,24,17,18,15,11,79,68,62,29.68,29.58,2,0,4,0.00
2013-1-4,24,17,13,13,10,7,81,72,59,29.88,29.66,2,0,2,0.00
2013-1-5,16,13,9,12,9,5,89,84,76,29.88,29.44,2,0,2,0.00
2013-1-6,18,12,8,12,8,5,89,83,73,29.45,29.29,1,0,2,0.00
2013-1-7,12,6,0,9,4,-3,90,87,85,29.56,29.21,2,0,2,0.00
2013-1-8,0,-4,-7,-3,-7,-10,86,83,82,30.17,29.56,1,0,2,0.00
2013-1-9,1,-3,-6,-2,-6,-9,85,83,82,30.25,29.97,0,0,0,0.00
2013-1-10,12,7,-1,9,4,-4,89,87,84,30.13,29.94,0,0,0,0.00
2013-1-11,14,12,7,12,9,4,90,89,87,30.24,29.91,0,0,0,0.00
2013-1-12,28,19,13,26,17,11,95,92,90,30.23,29.74,0,0,0,0.00
2013-1-13,33,30,28,30,27,24,95,86,75,29.77,29.55,0,0,0,0.01
2013-1-14,35,33,28,28,25,17,77,74,64,29.88,29.25,1,0,3,0.30
2013-1-15,28,13,8,18,10,6,91,85,64,30.27,29.88,0,0,0,0.00
2013-1-16,13,8,4,10,5,1,90,88,85,30.29,29.89,0,0,0,0.00
2013-1-17,3,-5,-13,-2,-10,-16,80,77,73,30.27,29.94,0,0,0,0.00
2013-1-18,-4,-11,-15,-9,-14,-18,80,77,70,30.51,30.27,0,0,0,0.00
2013-1-19,9,3,-9,-3,-6,-14,75,62,53,30.52,30.16,0,0,0,0.00
2013-1-20,11,7,1,7,2,-6,87,81,65,30.17,30.08,0,0,0,0.00
2013-1-21,8,5,-2,5,2,-5,88,84,78,30.21,30.09,0,0,0,0.00
2013-1-22,8,4,-2,3,0,-5,87,82,79,30.10,29.80,0,0,0,0.00
2013-1-23,6,4,1,1,-2,-7,82,74,66,29.81,29.68,0,0,0,0.00
2013-1-24,1,-6,-12,-7,-14,-19,67,62,58,29.93,29.74,0,0,0,0.00
2013-1-25,-12,-22,-29,-18,-25,-32,74,71,65,30.13,29.93,0,0,0,0.00
2013-1-26,32,-29,-32,-26,-32,-35,72,69,68,30.27,29.25,0,0,0,0.38
2013-1-27,-32,-37,-40,-34,-39,-40,68,65,63,30.73,30.27,0,0,0,0.00
2013-1-28,-7,-27,-39,-11,-30,-40,79,69,63,30.75,30.14,0,0,0,0.00
2013-1-29,-4,-8,-12,-12,-15,-18,74,64,52,30.14,29.97,0,0,0,0.00
2013-1-30,8,0,-8,3,-5,-12,81,78,72,30.03,29.74,0,0,0,0.00
2013-1-31,12,8,5,7,3,0,86,83,80,30.17,29.77,0,0,0,0.00